sensor_id;sensor_type;location;lat;lon;timestamp;temperature;humidity
24446;DHT22;13347;50.984;5.822;2023-01-19T00:00:03;2.20;1.00
24446;DHT22;13347;50.984;5.822;2023-01-19T00:02:31;2.20;1.00
24446;DHT22;13347;50.984;5.822;2023-01-19T00:04:58;2.20;4.30
24446;DHT22;13347;50.984;5.822;2023-01-19T00:07:26;2.20;1.00
24446;DHT22;13347;50.984;5.822;2023-01-19T00:09:55;2.10;2.30
24446;DHT22;13347;50.984;5.822;2023-01-19T00:12:22;2.20;6.10
24446;DHT22;13347;50.984;5.822;2023-01-19T00:14:51;2.20;6.30
24446;DHT22;13347;50.984;5.822;2023-01-19T00:17:18;2.30;2.00
24446;DHT22;13347;50.984;5.822;2023-01-19T00:19:45;2.30;1.00
24446;DHT22;13347;50.984;5.822;2023-01-19T00:22:12;2.30;1.00
24446;DHT22;13347;50.984;5.822;2023-01-19T00:24:39;2.30;1.00
24446;DHT22;13347;50.984;5.822;2023-01-19T00:27:06;2.30;1.00
24446;DHT22;13347;50.984;5.822;2023-01-19T00:29:34;2.30;1.00
24446;DHT22;13347;50.984;5.822;2023-01-19T00:32:04;2.30;1.00
24446;DHT22;13347;50.984;5.822;2023-01-19T00:34:31;2.30;1.00
24446;DHT22;13347;50.984;5.822;2023-01-19T00:37:05;2.30;1.00
24446;DHT22;13347;50.984;5.822;2023-01-19T00:39:32;2.20;1.00
24446;DHT22;13347;50.984;5.822;2023-01-19T00:41:59;2.20;1.00
24446;DHT22;13347;50.984;5.822;2023-01-19T00:44:44;2.30;1.00
24446;DHT22;13347;50.984;5.822;2023-01-19T00:47:13;2.20;1.00
24446;DHT22;13347;50.984;5.822;2023-01-19T00:49:40;2.30;1.00
24446;DHT22;13347;50.984;5.822;2023-01-19T00:52:07;2.20;1.00
24446;DHT22;13347;50.984;5.822;2023-01-19T00:54:34;2.20;1.00
24446;DHT22;13347;50.984;5.822;2023-01-19T00:57:02;2.10;1.00
24446;DHT22;13347;50.984;5.822;2023-01-19T00:59:30;2.10;1.00
24446;DHT22;13347;50.984;5.822;2023-01-19T01:01:59;2.10;1.00
24446;DHT22;13347;50.984;5.822;2023-01-19T01:04:28;2.10;1.00
24446;DHT22;13347;50.984;5.822;2023-01-19T01:06:55;2.10;2.40
24446;DHT22;13347;50.984;5.822;2023-01-19T01:09:22;2.10;1.00
24446;DHT22;13347;50.984;5.822;2023-01-19T01:11:50;2.10;1.00
24446;DHT22;13347;50.984;5.822;2023-01-19T01:14:17;2.10;2.50
24446;DHT22;13347;50.984;5.822;2023-01-19T01:16:44;2.10;1.00
24446;DHT22;13347;50.984;5.822;2023-01-19T01:19:12;2.10;1.00
24446;DHT22;13347;50.984;5.822;2023-01-19T01:21:40;2.10;1.50
24446;DHT22;13347;50.984;5.822;2023-01-19T01:24:08;2.10;3.70
24446;DHT22;13347;50.984;5.822;2023-01-19T01:26:36;2.10;1.00
24446;DHT22;13347;50.984;5.822;2023-01-19T01:29:04;2.00;3.30
24446;DHT22;13347;50.984;5.822;2023-01-19T01:31:33;2.00;4.90
24446;DHT22;13347;50.984;5.822;2023-01-19T01:34:00;2.00;8.90
24446;DHT22;13347;50.984;5.822;2023-01-19T01:36:28;2.00;6.10
24446;DHT22;13347;50.984;5.822;2023-01-19T01:38:59;2.00;10.60
24446;DHT22;13347;50.984;5.822;2023-01-19T01:41:26;2.00;10.00
24446;DHT22;13347;50.984;5.822;2023-01-19T01:43:55;2.10;6.90
24446;DHT22;13347;50.984;5.822;2023-01-19T01:46:24;2.00;2.40
24446;DHT22;13347;50.984;5.822;2023-01-19T01:48:55;2.00;1.00
24446;DHT22;13347;50.984;5.822;2023-01-19T01:51:29;2.00;3.30
24446;DHT22;13347;50.984;5.822;2023-01-19T01:54:06;2.00;1.20
24446;DHT22;13347;50.984;5.822;2023-01-19T01:56:38;1.90;3.00
24446;DHT22;13347;50.984;5.822;2023-01-19T01:59:08;1.90;8.80
24446;DHT22;13347;50.984;5.822;2023-01-19T02:01:37;1.90;11.30
24446;DHT22;13347;50.984;5.822;2023-01-19T02:04:22;1.90;13.30
24446;DHT22;13347;50.984;5.822;2023-01-19T02:06:49;1.90;9.00
24446;DHT22;13347;50.984;5.822;2023-01-19T02:09:36;1.90;6.70
24446;DHT22;13347;50.984;5.822;2023-01-19T02:12:22;1.90;14.60
24446;DHT22;13347;50.984;5.822;2023-01-19T02:15:14;1.90;10.20
24446;DHT22;13347;50.984;5.822;2023-01-19T02:17:42;1.90;9.40
24446;DHT22;13347;50.984;5.822;2023-01-19T02:20:10;2.00;8.70
24446;DHT22;13347;50.984;5.822;2023-01-19T02:22:44;2.10;1.60
24446;DHT22;13347;50.984;5.822;2023-01-19T02:25:16;2.10;1.00
24446;DHT22;13347;50.984;5.822;2023-01-19T02:27:45;2.00;1.00
24446;DHT22;13347;50.984;5.822;2023-01-19T02:30:12;2.10;1.00
24446;DHT22;13347;50.984;5.822;2023-01-19T02:32:41;2.00;1.00
24446;DHT22;13347;50.984;5.822;2023-01-19T02:35:09;2.00;1.00
24446;DHT22;13347;50.984;5.822;2023-01-19T02:37:38;2.00;3.90
24446;DHT22;13347;50.984;5.822;2023-01-19T02:40:10;2.00;7.10
24446;DHT22;13347;50.984;5.822;2023-01-19T02:42:42;2.10;1.00
24446;DHT22;13347;50.984;5.822;2023-01-19T02:45:11;2.10;1.00
24446;DHT22;13347;50.984;5.822;2023-01-19T02:47:42;2.20;1.00
24446;DHT22;13347;50.984;5.822;2023-01-19T02:50:43;2.20;1.00
24446;DHT22;13347;50.984;5.822;2023-01-19T02:53:37;2.20;1.00
24446;DHT22;13347;50.984;5.822;2023-01-19T02:56:14;2.20;1.00
24446;DHT22;13347;50.984;5.822;2023-01-19T02:58:51;2.20;1.00
24446;DHT22;13347;50.984;5.822;2023-01-19T03:01:26;2.20;1.00
24446;DHT22;13347;50.984;5.822;2023-01-19T03:03:59;2.20;1.00
24446;DHT22;13347;50.984;5.822;2023-01-19T03:06:38;2.20;1.00
24446;DHT22;13347;50.984;5.822;2023-01-19T03:09:13;2.20;1.00
24446;DHT22;13347;50.984;5.822;2023-01-19T03:11:45;2.20;1.00
24446;DHT22;13347;50.984;5.822;2023-01-19T03:14:18;2.20;1.00
24446;DHT22;13347;50.984;5.822;2023-01-19T03:16:51;2.20;1.00
24446;DHT22;13347;50.984;5.822;2023-01-19T03:19:23;2.20;1.00
24446;DHT22;13347;50.984;5.822;2023-01-19T03:21:56;2.20;1.00
24446;DHT22;13347;50.984;5.822;2023-01-19T03:24:27;2.20;1.00
24446;DHT22;13347;50.984;5.822;2023-01-19T03:26:57;2.10;1.00
24446;DHT22;13347;50.984;5.822;2023-01-19T03:29:31;2.20;1.00
24446;DHT22;13347;50.984;5.822;2023-01-19T03:32:04;2.10;1.00
24446;DHT22;13347;50.984;5.822;2023-01-19T03:34:34;2.20;1.00
24446;DHT22;13347;50.984;5.822;2023-01-19T03:37:03;2.20;1.00
24446;DHT22;13347;50.984;5.822;2023-01-19T03:39:31;2.10;1.00
24446;DHT22;13347;50.984;5.822;2023-01-19T03:42:01;2.10;1.00
24446;DHT22;13347;50.984;5.822;2023-01-19T03:44:32;2.10;1.00
24446;DHT22;13347;50.984;5.822;2023-01-19T03:47:01;2.10;1.00
24446;DHT22;13347;50.984;5.822;2023-01-19T03:49:29;2.10;1.00
24446;DHT22;13347;50.984;5.822;2023-01-19T03:51:57;2.10;1.00
24446;DHT22;13347;50.984;5.822;2023-01-19T03:54:25;2.10;1.00
24446;DHT22;13347;50.984;5.822;2023-01-19T03:56:53;2.10;1.00
24446;DHT22;13347;50.984;5.822;2023-01-19T03:59:20;2.20;1.00
24446;DHT22;13347;50.984;5.822;2023-01-19T04:01:49;2.20;1.00
24446;DHT22;13347;50.984;5.822;2023-01-19T04:04:16;2.20;1.00
24446;DHT22;13347;50.984;5.822;2023-01-19T04:06:43;2.20;1.00
24446;DHT22;13347;50.984;5.822;2023-01-19T04:09:10;2.30;1.00
24446;DHT22;13347;50.984;5.822;2023-01-19T04:11:38;2.30;1.00
24446;DHT22;13347;50.984;5.822;2023-01-19T04:14:05;2.30;1.00
24446;DHT22;13347;50.984;5.822;2023-01-19T04:16:32;2.40;1.00
24446;DHT22;13347;50.984;5.822;2023-01-19T04:19:01;2.40;1.00
24446;DHT22;13347;50.984;5.822;2023-01-19T04:21:28;2.40;1.00
24446;DHT22;13347;50.984;5.822;2023-01-19T04:23:55;2.40;1.00
24446;DHT22;13347;50.984;5.822;2023-01-19T04:26:23;2.40;1.00
24446;DHT22;13347;50.984;5.822;2023-01-19T04:28:51;2.40;1.00
24446;DHT22;13347;50.984;5.822;2023-01-19T04:31:18;2.30;1.00
24446;DHT22;13347;50.984;5.822;2023-01-19T04:33:45;2.30;1.00
24446;DHT22;13347;50.984;5.822;2023-01-19T04:36:14;2.30;1.00
24446;DHT22;13347;50.984;5.822;2023-01-19T04:38:41;2.30;1.00
24446;DHT22;13347;50.984;5.822;2023-01-19T04:41:09;2.30;1.00
24446;DHT22;13347;50.984;5.822;2023-01-19T04:43:36;2.30;7.10
24446;DHT22;13347;50.984;5.822;2023-01-19T04:46:03;2.30;19.90
24446;DHT22;13347;50.984;5.822;2023-01-19T04:48:31;2.20;28.50
24446;DHT22;13347;50.984;5.822;2023-01-19T04:50:58;2.10;49.10
24446;DHT22;13347;50.984;5.822;2023-01-19T04:53:27;2.10;68.20
24446;DHT22;13347;50.984;5.822;2023-01-19T04:55:54;2.10;90.40
24446;DHT22;13347;50.984;5.822;2023-01-19T04:58:22;2.00;97.00
24446;DHT22;13347;50.984;5.822;2023-01-19T05:00:49;2.00;99.90
24446;DHT22;13347;50.984;5.822;2023-01-19T05:03:18;2.00;99.90
24446;DHT22;13347;50.984;5.822;2023-01-19T05:05:45;1.90;99.90
24446;DHT22;13347;50.984;5.822;2023-01-19T05:08:12;1.90;99.90
24446;DHT22;13347;50.984;5.822;2023-01-19T05:10:41;1.80;99.90
24446;DHT22;13347;50.984;5.822;2023-01-19T05:13:08;1.80;99.90
24446;DHT22;13347;50.984;5.822;2023-01-19T05:15:35;1.80;99.90
24446;DHT22;13347;50.984;5.822;2023-01-19T05:18:02;1.80;99.90
24446;DHT22;13347;50.984;5.822;2023-01-19T05:20:30;1.70;99.90
24446;DHT22;13347;50.984;5.822;2023-01-19T05:22:57;1.70;99.90
24446;DHT22;13347;50.984;5.822;2023-01-19T05:25:24;1.70;99.90
24446;DHT22;13347;50.984;5.822;2023-01-19T05:27:52;1.70;99.90
24446;DHT22;13347;50.984;5.822;2023-01-19T05:30:20;1.80;99.90
24446;DHT22;13347;50.984;5.822;2023-01-19T05:32:47;1.80;99.90
24446;DHT22;13347;50.984;5.822;2023-01-19T05:35:14;1.80;99.90
24446;DHT22;13347;50.984;5.822;2023-01-19T05:37:42;1.80;99.90
24446;DHT22;13347;50.984;5.822;2023-01-19T05:40:10;1.90;99.90
24446;DHT22;13347;50.984;5.822;2023-01-19T05:42:37;1.90;99.90
24446;DHT22;13347;50.984;5.822;2023-01-19T05:45:07;1.90;99.90
24446;DHT22;13347;50.984;5.822;2023-01-19T05:47:34;1.90;99.90
24446;DHT22;13347;50.984;5.822;2023-01-19T05:50:02;1.90;99.90
24446;DHT22;13347;50.984;5.822;2023-01-19T05:52:29;1.90;99.90
24446;DHT22;13347;50.984;5.822;2023-01-19T05:54:56;2.00;99.90
24446;DHT22;13347;50.984;5.822;2023-01-19T05:57:23;1.90;99.90
24446;DHT22;13347;50.984;5.822;2023-01-19T05:59:51;1.80;99.90
24446;DHT22;13347;50.984;5.822;2023-01-19T06:02:19;1.70;99.90
24446;DHT22;13347;50.984;5.822;2023-01-19T06:04:53;1.70;99.90
24446;DHT22;13347;50.984;5.822;2023-01-19T06:07:20;1.60;99.90
24446;DHT22;13347;50.984;5.822;2023-01-19T06:09:47;1.70;99.90
24446;DHT22;13347;50.984;5.822;2023-01-19T06:12:15;1.80;99.90
24446;DHT22;13347;50.984;5.822;2023-01-19T06:14:42;1.80;99.90
24446;DHT22;13347;50.984;5.822;2023-01-19T06:17:09;1.70;99.90
24446;DHT22;13347;50.984;5.822;2023-01-19T06:19:37;1.60;99.90
24446;DHT22;13347;50.984;5.822;2023-01-19T06:22:05;1.60;99.90
24446;DHT22;13347;50.984;5.822;2023-01-19T06:24:32;1.40;99.90
24446;DHT22;13347;50.984;5.822;2023-01-19T06:27:00;1.30;99.90
24446;DHT22;13347;50.984;5.822;2023-01-19T06:29:27;1.40;99.90
24446;DHT22;13347;50.984;5.822;2023-01-19T06:31:54;1.40;99.90
24446;DHT22;13347;50.984;5.822;2023-01-19T06:34:21;1.40;99.90
24446;DHT22;13347;50.984;5.822;2023-01-19T06:36:54;1.30;99.90
24446;DHT22;13347;50.984;5.822;2023-01-19T06:39:22;1.30;99.90
24446;DHT22;13347;50.984;5.822;2023-01-19T06:41:49;1.30;99.90
24446;DHT22;13347;50.984;5.822;2023-01-19T06:44:16;1.20;99.90
24446;DHT22;13347;50.984;5.822;2023-01-19T06:46:43;1.20;99.90
24446;DHT22;13347;50.984;5.822;2023-01-19T06:49:11;1.20;99.90
24446;DHT22;13347;50.984;5.822;2023-01-19T06:51:38;1.30;99.90
24446;DHT22;13347;50.984;5.822;2023-01-19T06:54:07;1.30;99.90
24446;DHT22;13347;50.984;5.822;2023-01-19T06:56:34;1.30;99.90
24446;DHT22;13347;50.984;5.822;2023-01-19T06:59:01;1.40;99.90
24446;DHT22;13347;50.984;5.822;2023-01-19T07:01:28;1.40;99.90
24446;DHT22;13347;50.984;5.822;2023-01-19T07:03:55;1.40;99.90
24446;DHT22;13347;50.984;5.822;2023-01-19T07:06:22;1.40;99.90
24446;DHT22;13347;50.984;5.822;2023-01-19T07:08:50;1.50;99.90
24446;DHT22;13347;50.984;5.822;2023-01-19T07:11:18;1.40;99.90
24446;DHT22;13347;50.984;5.822;2023-01-19T07:13:45;1.50;99.90
24446;DHT22;13347;50.984;5.822;2023-01-19T07:16:16;1.40;99.90
24446;DHT22;13347;50.984;5.822;2023-01-19T07:18:46;1.40;99.90
24446;DHT22;13347;50.984;5.822;2023-01-19T07:21:14;1.40;99.90
24446;DHT22;13347;50.984;5.822;2023-01-19T07:23:41;1.50;99.90
24446;DHT22;13347;50.984;5.822;2023-01-19T07:26:09;1.50;99.90
24446;DHT22;13347;50.984;5.822;2023-01-19T07:28:38;1.50;99.90
24446;DHT22;13347;50.984;5.822;2023-01-19T07:31:07;1.50;99.90
24446;DHT22;13347;50.984;5.822;2023-01-19T07:33:34;1.60;99.90
24446;DHT22;13347;50.984;5.822;2023-01-19T07:36:01;1.60;99.90
24446;DHT22;13347;50.984;5.822;2023-01-19T07:38:29;1.60;99.90
24446;DHT22;13347;50.984;5.822;2023-01-19T07:40:59;1.70;99.90
24446;DHT22;13347;50.984;5.822;2023-01-19T07:43:26;1.70;99.90
24446;DHT22;13347;50.984;5.822;2023-01-19T07:45:56;1.70;99.90
24446;DHT22;13347;50.984;5.822;2023-01-19T07:48:24;1.70;99.90
24446;DHT22;13347;50.984;5.822;2023-01-19T07:50:51;1.80;99.90
24446;DHT22;13347;50.984;5.822;2023-01-19T07:53:19;1.80;99.90
24446;DHT22;13347;50.984;5.822;2023-01-19T07:55:53;1.80;99.90
24446;DHT22;13347;50.984;5.822;2023-01-19T07:58:21;1.80;99.90
24446;DHT22;13347;50.984;5.822;2023-01-19T08:00:48;1.80;99.90
24446;DHT22;13347;50.984;5.822;2023-01-19T08:03:17;1.90;99.90
24446;DHT22;13347;50.984;5.822;2023-01-19T08:05:49;1.90;99.90
24446;DHT22;13347;50.984;5.822;2023-01-19T08:08:17;1.90;99.90
24446;DHT22;13347;50.984;5.822;2023-01-19T08:10:44;1.90;99.90
24446;DHT22;13347;50.984;5.822;2023-01-19T08:13:15;1.90;99.90
24446;DHT22;13347;50.984;5.822;2023-01-19T08:15:42;1.90;99.90
24446;DHT22;13347;50.984;5.822;2023-01-19T08:18:09;1.90;99.90
24446;DHT22;13347;50.984;5.822;2023-01-19T08:20:38;2.00;99.90
24446;DHT22;13347;50.984;5.822;2023-01-19T08:23:05;2.00;99.90
24446;DHT22;13347;50.984;5.822;2023-01-19T08:25:33;2.00;99.90
24446;DHT22;13347;50.984;5.822;2023-01-19T08:28:02;1.90;99.90
24446;DHT22;13347;50.984;5.822;2023-01-19T08:30:31;1.90;99.90
24446;DHT22;13347;50.984;5.822;2023-01-19T08:32:58;2.00;99.90
24446;DHT22;13347;50.984;5.822;2023-01-19T08:35:29;2.00;99.90
24446;DHT22;13347;50.984;5.822;2023-01-19T08:37:58;2.00;99.90
24446;DHT22;13347;50.984;5.822;2023-01-19T08:40:27;2.00;99.90
24446;DHT22;13347;50.984;5.822;2023-01-19T08:42:57;2.00;99.90
24446;DHT22;13347;50.984;5.822;2023-01-19T08:45:27;2.10;99.90
24446;DHT22;13347;50.984;5.822;2023-01-19T08:47:55;2.10;99.90
24446;DHT22;13347;50.984;5.822;2023-01-19T08:50:23;2.10;99.90
24446;DHT22;13347;50.984;5.822;2023-01-19T08:52:51;2.20;99.90
24446;DHT22;13347;50.984;5.822;2023-01-19T08:55:20;2.20;99.90
24446;DHT22;13347;50.984;5.822;2023-01-19T08:57:50;2.20;99.90
24446;DHT22;13347;50.984;5.822;2023-01-19T09:00:18;2.20;99.90
24446;DHT22;13347;50.984;5.822;2023-01-19T09:02:46;2.20;99.90
24446;DHT22;13347;50.984;5.822;2023-01-19T09:05:13;2.30;99.90
24446;DHT22;13347;50.984;5.822;2023-01-19T09:07:42;2.30;99.90
24446;DHT22;13347;50.984;5.822;2023-01-19T09:10:11;2.40;99.90
24446;DHT22;13347;50.984;5.822;2023-01-19T09:12:40;2.40;99.90
24446;DHT22;13347;50.984;5.822;2023-01-19T09:15:08;2.50;99.90
24446;DHT22;13347;50.984;5.822;2023-01-19T09:17:38;2.50;99.90
24446;DHT22;13347;50.984;5.822;2023-01-19T09:20:07;2.50;99.90
24446;DHT22;13347;50.984;5.822;2023-01-19T09:22:34;2.50;99.90
24446;DHT22;13347;50.984;5.822;2023-01-19T09:25:02;2.50;99.90
24446;DHT22;13347;50.984;5.822;2023-01-19T09:27:29;2.60;99.90
24446;DHT22;13347;50.984;5.822;2023-01-19T09:29:58;2.60;99.90
24446;DHT22;13347;50.984;5.822;2023-01-19T09:32:25;2.60;99.90
24446;DHT22;13347;50.984;5.822;2023-01-19T09:34:53;2.50;99.90
24446;DHT22;13347;50.984;5.822;2023-01-19T09:37:21;2.50;99.90
24446;DHT22;13347;50.984;5.822;2023-01-19T09:39:48;2.50;99.90
24446;DHT22;13347;50.984;5.822;2023-01-19T09:42:21;2.60;99.90
24446;DHT22;13347;50.984;5.822;2023-01-19T09:44:50;2.70;99.90
24446;DHT22;13347;50.984;5.822;2023-01-19T09:47:22;2.70;99.90
24446;DHT22;13347;50.984;5.822;2023-01-19T09:49:54;2.70;99.90
24446;DHT22;13347;50.984;5.822;2023-01-19T09:52:24;2.80;99.90
24446;DHT22;13347;50.984;5.822;2023-01-19T09:54:53;2.90;99.90
24446;DHT22;13347;50.984;5.822;2023-01-19T09:57:22;3.00;99.90
24446;DHT22;13347;50.984;5.822;2023-01-19T09:59:49;2.90;99.90
24446;DHT22;13347;50.984;5.822;2023-01-19T10:02:32;3.00;99.90
24446;DHT22;13347;50.984;5.822;2023-01-19T10:05:02;3.00;99.90
24446;DHT22;13347;50.984;5.822;2023-01-19T10:07:40;3.10;99.90
24446;DHT22;13347;50.984;5.822;2023-01-19T10:10:19;3.10;99.90
24446;DHT22;13347;50.984;5.822;2023-01-19T10:15:42;3.30;99.90
24446;DHT22;13347;50.984;5.822;2023-01-19T10:18:16;3.40;99.90
24446;DHT22;13347;50.984;5.822;2023-01-19T10:20:48;3.50;99.90
24446;DHT22;13347;50.984;5.822;2023-01-19T10:23:38;3.60;99.90
24446;DHT22;13347;50.984;5.822;2023-01-19T10:26:12;3.50;99.90
24446;DHT22;13347;50.984;5.822;2023-01-19T10:28:39;3.70;99.90
24446;DHT22;13347;50.984;5.822;2023-01-19T10:31:07;3.90;99.90
24446;DHT22;13347;50.984;5.822;2023-01-19T10:33:37;3.90;99.90
24446;DHT22;13347;50.984;5.822;2023-01-19T10:36:05;3.90;99.90
24446;DHT22;13347;50.984;5.822;2023-01-19T10:38:41;3.70;98.00
24446;DHT22;13347;50.984;5.822;2023-01-19T10:41:14;3.60;99.90
24446;DHT22;13347;50.984;5.822;2023-01-19T10:43:44;3.60;99.90
24446;DHT22;13347;50.984;5.822;2023-01-19T10:46:20;3.60;99.70
24446;DHT22;13347;50.984;5.822;2023-01-19T10:48:51;3.50;99.10
24446;DHT22;13347;50.984;5.822;2023-01-19T10:51:20;3.40;98.20
24446;DHT22;13347;50.984;5.822;2023-01-19T10:53:59;3.60;99.90
24446;DHT22;13347;50.984;5.822;2023-01-19T10:56:29;3.70;94.30
24446;DHT22;13347;50.984;5.822;2023-01-19T10:58:59;3.70;87.70
24446;DHT22;13347;50.984;5.822;2023-01-19T11:01:28;3.90;89.70
24446;DHT22;13347;50.984;5.822;2023-01-19T11:04:19;4.00;64.70
24446;DHT22;13347;50.984;5.822;2023-01-19T11:06:47;4.20;15.10
24446;DHT22;13347;50.984;5.822;2023-01-19T11:09:19;4.30;25.90
24446;DHT22;13347;50.984;5.822;2023-01-19T11:11:48;4.50;1.00
24446;DHT22;13347;50.984;5.822;2023-01-19T11:14:20;4.40;1.00
24446;DHT22;13347;50.984;5.822;2023-01-19T11:16:50;4.50;1.00
24446;DHT22;13347;50.984;5.822;2023-01-19T11:19:25;4.60;1.00
24446;DHT22;13347;50.984;5.822;2023-01-19T11:22:06;4.70;1.00
24446;DHT22;13347;50.984;5.822;2023-01-19T11:24:36;4.70;1.00
24446;DHT22;13347;50.984;5.822;2023-01-19T11:27:04;4.60;1.00
24446;DHT22;13347;50.984;5.822;2023-01-19T11:29:31;4.50;1.00
24446;DHT22;13347;50.984;5.822;2023-01-19T11:32:09;4.40;1.00
24446;DHT22;13347;50.984;5.822;2023-01-19T11:34:38;4.40;1.00
24446;DHT22;13347;50.984;5.822;2023-01-19T11:37:28;4.40;1.00
24446;DHT22;13347;50.984;5.822;2023-01-19T11:39:57;4.20;1.00
24446;DHT22;13347;50.984;5.822;2023-01-19T11:42:29;4.30;1.00
24446;DHT22;13347;50.984;5.822;2023-01-19T11:45:03;4.20;1.00
24446;DHT22;13347;50.984;5.822;2023-01-19T11:47:37;4.10;1.00
24446;DHT22;13347;50.984;5.822;2023-01-19T11:50:13;4.00;1.00
24446;DHT22;13347;50.984;5.822;2023-01-19T11:52:43;3.90;1.00
24446;DHT22;13347;50.984;5.822;2023-01-19T11:55:17;3.80;1.00
24446;DHT22;13347;50.984;5.822;2023-01-19T11:57:49;3.70;1.00
24446;DHT22;13347;50.984;5.822;2023-01-19T12:00:23;3.60;1.00
24446;DHT22;13347;50.984;5.822;2023-01-19T12:02:54;3.60;1.00
24446;DHT22;13347;50.984;5.822;2023-01-19T12:05:28;3.70;1.00
24446;DHT22;13347;50.984;5.822;2023-01-19T12:07:58;3.70;1.00
24446;DHT22;13347;50.984;5.822;2023-01-19T12:10:28;3.50;1.00
24446;DHT22;13347;50.984;5.822;2023-01-19T12:12:57;3.40;1.00
24446;DHT22;13347;50.984;5.822;2023-01-19T12:15:29;3.00;1.00
24446;DHT22;13347;50.984;5.822;2023-01-19T12:17:59;2.80;29.60
24446;DHT22;13347;50.984;5.822;2023-01-19T12:20:32;2.60;52.20
24446;DHT22;13347;50.984;5.822;2023-01-19T12:23:03;2.60;91.00
24446;DHT22;13347;50.984;5.822;2023-01-19T12:25:46;2.60;99.90
24446;DHT22;13347;50.984;5.822;2023-01-19T12:28:17;2.70;99.90
24446;DHT22;13347;50.984;5.822;2023-01-19T12:30:47;2.80;99.90
24446;DHT22;13347;50.984;5.822;2023-01-19T12:33:30;2.80;99.90
24446;DHT22;13347;50.984;5.822;2023-01-19T12:36:07;2.70;99.90
24446;DHT22;13347;50.984;5.822;2023-01-19T12:38:45;2.70;99.90
24446;DHT22;13347;50.984;5.822;2023-01-19T12:41:26;2.90;99.90
24446;DHT22;13347;50.984;5.822;2023-01-19T12:44:13;3.10;99.90
24446;DHT22;13347;50.984;5.822;2023-01-19T12:46:46;3.40;99.90
24446;DHT22;13347;50.984;5.822;2023-01-19T12:49:22;3.60;99.90
24446;DHT22;13347;50.984;5.822;2023-01-19T12:51:54;3.70;82.30
24446;DHT22;13347;50.984;5.822;2023-01-19T12:54:27;3.80;83.30
24446;DHT22;13347;50.984;5.822;2023-01-19T12:56:58;3.70;48.20
24446;DHT22;13347;50.984;5.822;2023-01-19T12:59:28;3.50;20.20
24446;DHT22;13347;50.984;5.822;2023-01-19T13:02:29;3.50;54.40
24446;DHT22;13347;50.984;5.822;2023-01-19T13:05:13;3.50;9.20
24446;DHT22;13347;50.984;5.822;2023-01-19T13:08:17;3.40;1.00
24446;DHT22;13347;50.984;5.822;2023-01-19T13:11:18;3.50;1.00
24446;DHT22;13347;50.984;5.822;2023-01-19T13:19:53;3.70;1.00
24446;DHT22;13347;50.984;5.822;2023-01-19T13:23:14;3.60;1.00
24446;DHT22;13347;50.984;5.822;2023-01-19T13:25:57;3.60;1.00
24446;DHT22;13347;50.984;5.822;2023-01-19T13:28:27;3.50;1.00
24446;DHT22;13347;50.984;5.822;2023-01-19T13:30:58;3.60;1.00
24446;DHT22;13347;50.984;5.822;2023-01-19T13:33:30;3.60;1.00
24446;DHT22;13347;50.984;5.822;2023-01-19T13:36:01;3.70;1.00
24446;DHT22;13347;50.984;5.822;2023-01-19T13:38:29;3.50;1.00
24446;DHT22;13347;50.984;5.822;2023-01-19T13:41:00;3.30;1.00
24446;DHT22;13347;50.984;5.822;2023-01-19T13:43:33;3.30;1.00
24446;DHT22;13347;50.984;5.822;2023-01-19T13:46:03;3.50;1.00
24446;DHT22;13347;50.984;5.822;2023-01-19T13:48:31;3.50;1.00
24446;DHT22;13347;50.984;5.822;2023-01-19T13:51:04;3.40;1.00
24446;DHT22;13347;50.984;5.822;2023-01-19T13:53:31;3.40;1.00
24446;DHT22;13347;50.984;5.822;2023-01-19T13:56:25;3.40;1.00
24446;DHT22;13347;50.984;5.822;2023-01-19T13:58:56;3.40;1.00
24446;DHT22;13347;50.984;5.822;2023-01-19T14:01:24;3.40;1.00
24446;DHT22;13347;50.984;5.822;2023-01-19T14:03:52;3.40;1.00
24446;DHT22;13347;50.984;5.822;2023-01-19T14:06:31;3.40;1.00
24446;DHT22;13347;50.984;5.822;2023-01-19T14:09:14;3.40;1.00
24446;DHT22;13347;50.984;5.822;2023-01-19T14:12:04;3.50;1.00
24446;DHT22;13347;50.984;5.822;2023-01-19T14:14:32;3.60;1.00
24446;DHT22;13347;50.984;5.822;2023-01-19T14:16:59;3.50;1.00
24446;DHT22;13347;50.984;5.822;2023-01-19T14:19:26;3.60;1.00
24446;DHT22;13347;50.984;5.822;2023-01-19T14:21:59;3.60;1.00
24446;DHT22;13347;50.984;5.822;2023-01-19T14:24:27;3.50;1.00
24446;DHT22;13347;50.984;5.822;2023-01-19T14:27:14;3.60;1.00
24446;DHT22;13347;50.984;5.822;2023-01-19T14:29:44;3.60;1.00
24446;DHT22;13347;50.984;5.822;2023-01-19T14:32:13;3.60;1.00
24446;DHT22;13347;50.984;5.822;2023-01-19T14:34:43;3.70;1.00
24446;DHT22;13347;50.984;5.822;2023-01-19T14:37:21;3.70;1.00
24446;DHT22;13347;50.984;5.822;2023-01-19T14:39:50;3.70;1.00
24446;DHT22;13347;50.984;5.822;2023-01-19T14:42:23;3.70;1.00
24446;DHT22;13347;50.984;5.822;2023-01-19T14:44:52;3.80;1.00
24446;DHT22;13347;50.984;5.822;2023-01-19T14:47:30;3.80;1.00
24446;DHT22;13347;50.984;5.822;2023-01-19T14:50:04;3.80;1.00
24446;DHT22;13347;50.984;5.822;2023-01-19T14:52:36;3.70;1.00
24446;DHT22;13347;50.984;5.822;2023-01-19T14:55:06;3.80;1.00
24446;DHT22;13347;50.984;5.822;2023-01-19T14:57:35;3.70;1.00
24446;DHT22;13347;50.984;5.822;2023-01-19T15:00:12;3.70;1.00
24446;DHT22;13347;50.984;5.822;2023-01-19T15:02:41;3.70;1.00
24446;DHT22;13347;50.984;5.822;2023-01-19T15:05:09;3.60;1.00
24446;DHT22;13347;50.984;5.822;2023-01-19T15:07:36;3.50;1.00
24446;DHT22;13347;50.984;5.822;2023-01-19T15:10:11;3.60;1.00
24446;DHT22;13347;50.984;5.822;2023-01-19T15:12:40;3.60;1.00
24446;DHT22;13347;50.984;5.822;2023-01-19T15:15:13;3.50;1.00
24446;DHT22;13347;50.984;5.822;2023-01-19T15:17:41;3.30;1.00
24446;DHT22;13347;50.984;5.822;2023-01-19T15:20:13;3.30;1.00
24446;DHT22;13347;50.984;5.822;2023-01-19T15:22:41;3.30;1.00
24446;DHT22;13347;50.984;5.822;2023-01-19T15:25:12;3.30;1.00
24446;DHT22;13347;50.984;5.822;2023-01-19T15:27:41;3.30;1.00
24446;DHT22;13347;50.984;5.822;2023-01-19T15:30:16;3.30;1.00
24446;DHT22;13347;50.984;5.822;2023-01-19T15:32:44;3.40;1.00
24446;DHT22;13347;50.984;5.822;2023-01-19T15:35:13;3.30;1.00
24446;DHT22;13347;50.984;5.822;2023-01-19T15:37:41;3.20;1.00
24446;DHT22;13347;50.984;5.822;2023-01-19T15:40:09;3.00;1.00
24446;DHT22;13347;50.984;5.822;2023-01-19T15:42:37;2.90;27.30
24446;DHT22;13347;50.984;5.822;2023-01-19T15:48:03;2.60;90.20
24446;DHT22;13347;50.984;5.822;2023-01-19T15:50:31;2.50;99.90
24446;DHT22;13347;50.984;5.822;2023-01-19T15:52:58;2.40;99.90
24446;DHT22;13347;50.984;5.822;2023-01-19T15:55:26;2.40;99.90
24446;DHT22;13347;50.984;5.822;2023-01-19T15:57:53;2.50;99.90
24446;DHT22;13347;50.984;5.822;2023-01-19T16:00:28;2.50;99.90
24446;DHT22;13347;50.984;5.822;2023-01-19T16:02:55;2.50;99.90
24446;DHT22;13347;50.984;5.822;2023-01-19T16:05:22;2.40;99.90
24446;DHT22;13347;50.984;5.822;2023-01-19T16:07:50;2.40;99.90
24446;DHT22;13347;50.984;5.822;2023-01-19T16:10:17;2.50;99.90
24446;DHT22;13347;50.984;5.822;2023-01-19T16:12:45;2.50;99.90
24446;DHT22;13347;50.984;5.822;2023-01-19T16:15:14;2.60;99.90
24446;DHT22;13347;50.984;5.822;2023-01-19T16:17:43;2.60;99.90
24446;DHT22;13347;50.984;5.822;2023-01-19T16:20:11;2.50;99.90
24446;DHT22;13347;50.984;5.822;2023-01-19T16:22:38;2.50;99.90
24446;DHT22;13347;50.984;5.822;2023-01-19T16:25:05;2.50;99.90
24446;DHT22;13347;50.984;5.822;2023-01-19T16:27:33;2.60;99.90